El Dorado Springs, MO (64744)

10:49 PM CDT on July 29, 2016 (GMT -0500)
St. Clair County | | Change Station

Elev 965 ft 37.90 °N, 93.80 °W | Updated 35 seconds ago

Clear
Clear
75.7 °F
Feels Like 74 °F
N
0.0
Wind Variable Wind from SSE
Gusts 0.0 mph

Today
High -- | Low -- °F
--% Chance of Precip.
Yesterday
High -- | Low -- °F
Precip. -- in
Pressure 29.99 in
Visibility 10.0 miles
Clouds Clear
Heat Index 74 °F
Dew Point 75 °F
Humidity 97%
Rainfall 0.33 in
Snow Depth Not available.
6:17 AM 8:27 PM
Waning Crescent, 16% visible
METAR KGLY 300335Z AUTO 00000KT 10SM CLR 22/20 A2999 RMK AO2
Pressure 29.99 in
Visibility 10.0 miles
Clouds Clear
Heat Index 74 °F
Dew Point 75 °F
Humidity 97%
Rainfall 0.33 in
Snow Depth Not available.
6:17 AM 8:27 PM
Waning Crescent, 16% visible
METAR KGLY 300335Z AUTO 00000KT 10SM CLR 22/20 A2999 RMK AO2

10-Day Weather Forecast

Almanac

Astronomy

Jul. 29, 2016 Rise Set
Actual Time
Civil Twilight
Nautical Twilight
Astronomical Twilight
Moon
Length of Visible Light
Length of Day
Tomorrow will be .
, % of the Moon is Illuminated

Today's Extremes

State Highs State Lows

Community

WunderPhotos

Upload Photos

1,928,500 photos uploaded!

WunderBlog® & News

Nearby

Air Quality

  Air Quality AQ Index Pollutant
Not available.

Snow Depth

Station Depth Elevation

Earthquake Activity

City Distance Mag. Time & Date
Minimum magnitude displayed is 2.5.

Coastal Water Temperatures

Place Temperature

Stations

Nearby Weather Stations

Station Location Temp. Windchill Dew Point Humidity Wind Precip. Elev Updated Type
                   

Watches & Warnings

There are currently no watches in effect.